Terminal Aerodrome Forecast
Issued by NWS Grand Forks, ND

Home | Current Version | Previous Version | Text Only | Print | Product List | Glossary On
Versions: 1 2 3 4 5 6 7 8 9 10 11 12 13 14 15 16 17
000
FTUS43 KFGF 262321
TAFFAR
TAF
KFAR 262321Z 2700/2724 28015KT P6SM SCT070
      TEMPO 2700/2701 BKN070
     FM270200 27006KT P6SM FEW200
     FM271800 25010KT P6SM BKN200=

USA.gov is the U.S. government's official web portal to all federal, state and local government web resources and services.